»·PEaware :: DAL209 KBUR-KSAC

DAL209 :: KBUR-KSAC

FLIGHT INFORMATION

Flight Status: Arrived
Operator:
Delta Air Lines
More flights by this operator :: More flights under this callsign
Pilot: Ray S. (4509)
Aircraft: BEECH AIRCRAFT BEECH AIRLINER
(B190)
More flights by this aircraft type
Origin: KBUR Bob Hope-Burbank
United States
Destination: KSAC Sacramento Executive
United States
More flights between these airports :: More routes between these airports
Route: +GMN AVE J189 LIN SAC
File this flight plan on PilotEdge
Remarks: We have no idea what we're doing!
Altitude:
(Current/Filed)
22,000ft
Speed:
(Current/Filed)
250kts
Departed: 29-Jan-19 08:39 PM
Arrived: 29-Jan-19 09:54 PM
Distance/Time
Traveled:
300nm/1:15
Distance/Time
To Go:
Arrived

Flight Plot

Page will automatically refresh every two minutes.

Flight plan parsing failed; only flown route is shown


Map Options




Map Legend


Flown Route
Filed Route
Departure Airport
Arrival Airport
Navaid (VOR, NDB)
Fix

Horizontal Profiles

Position Reports

Time Latitude Longitude Heading Altitude Ground
Speed
29-Jan-19 20:07 34.197019 -118.352336 182 699ft 0kts
29-Jan-19 20:08 34.197019 -118.352336 182 699ft 0kts
29-Jan-19 20:09 34.197019 -118.352336 182 699ft 0kts
29-Jan-19 20:10 34.197019 -118.352336 182 699ft 0kts
29-Jan-19 20:11 34.197019 -118.352336 182 699ft 0kts
29-Jan-19 20:12 34.197019 -118.352336 182 699ft 0kts
29-Jan-19 20:13 34.197019 -118.352336 182 699ft 0kts
29-Jan-19 20:14 34.197019 -118.352336 182 699ft 0kts
29-Jan-19 20:15 34.197019 -118.352336 182 699ft 0kts
29-Jan-19 20:16 34.197019 -118.352336 182 699ft 0kts
29-Jan-19 20:17 34.197019 -118.352336 182 699ft 0kts
29-Jan-19 20:18 34.197019 -118.352336 182 699ft 0kts
29-Jan-19 20:19 34.197019 -118.352336 182 699ft 0kts
29-Jan-19 20:20 34.197019 -118.352336 182 699ft 0kts
29-Jan-19 20:21 34.197019 -118.352336 182 699ft 0kts
29-Jan-19 20:22 34.197019 -118.352336 182 699ft 0kts
29-Jan-19 20:23 34.197019 -118.352336 182 699ft 0kts
29-Jan-19 20:24 34.197019 -118.352336 182 699ft 0kts
29-Jan-19 20:25 34.197019 -118.352336 182 699ft 0kts
29-Jan-19 20:26 34.197019 -118.352336 182 699ft 0kts
29-Jan-19 20:27 34.197019 -118.352336 182 699ft 0kts
29-Jan-19 20:28 34.197019 -118.352336 182 699ft 0kts
29-Jan-19 20:29 34.197061 -118.352333 182 699ft 1kts
29-Jan-19 20:30 34.197083 -118.352332 182 699ft 0kts
29-Jan-19 20:31 34.197077 -118.352552 298 699ft 3kts
29-Jan-19 20:32 34.197377 -118.354547 293 704ft 8kts
29-Jan-19 20:33 34.199784 -118.355647 345 712ft 8kts
29-Jan-19 20:34 34.204274 -118.356906 346 730ft 21kts
29-Jan-19 20:35 34.208603 -118.358067 345 753ft 13kts
29-Jan-19 20:37 34.211396 -118.358840 340 763ft 6kts
29-Jan-19 20:37 34.211640 -118.360274 170 767ft 8kts
29-Jan-19 20:38 34.195571 -118.355441 165 1052ft 148kts
29-Jan-19 20:39 34.157197 -118.375991 227 3475ft 177kts
29-Jan-19 20:40 34.129812 -118.425842 228 5900ft 181kts
29-Jan-19 20:41 34.115173 -118.479487 298 7813ft 192kts
29-Jan-19 20:42 34.155812 -118.519939 329 9784ft 190kts
29-Jan-19 20:43 34.205056 -118.544918 333 11321ft 198kts
29-Jan-19 20:44 34.255731 -118.571425 332 12698ft 201kts
29-Jan-19 20:45 34.307960 -118.596347 331 13949ft 203kts
29-Jan-19 20:46 34.358812 -118.625274 330 15198ft 205kts
29-Jan-19 20:47 34.413420 -118.652404 332 16007ft 217kts
29-Jan-19 20:48 34.468785 -118.680015 333 16909ft 216kts
29-Jan-19 20:49 34.523658 -118.707268 333 17804ft 213kts
29-Jan-19 20:50 34.577619 -118.733940 333 18692ft 209kts
29-Jan-19 20:51 34.631925 -118.761918 332 19608ft 220kts
29-Jan-19 20:52 34.687525 -118.791286 332 20406ft 228kts
29-Jan-19 20:53 34.745411 -118.822109 332 21108ft 231kts
29-Jan-19 20:54 34.804260 -118.853751 332 21796ft 233kts
29-Jan-19 20:55 34.848106 -118.910369 307 22086ft 239kts
29-Jan-19 20:56 34.888777 -118.975842 307 22075ft 245kts
29-Jan-19 20:57 34.930708 -119.042235 309 22060ft 248kts
29-Jan-19 20:58 34.972950 -119.109301 309 22058ft 251kts
29-Jan-19 20:59 35.017402 -119.175348 311 22058ft 253kts
29-Jan-19 21:00 35.062660 -119.242192 311 22059ft 257kts
29-Jan-19 21:01 35.107688 -119.308718 311 22063ft 258kts
29-Jan-19 21:02 35.155649 -119.375636 313 22064ft 259kts
29-Jan-19 21:03 35.203726 -119.441216 313 22081ft 259kts
29-Jan-19 21:04 35.251958 -119.506945 313 22080ft 259kts
29-Jan-19 21:05 35.301657 -119.570955 316 22077ft 259kts
29-Jan-19 21:06 35.352811 -119.632990 316 22078ft 259kts
29-Jan-19 21:07 35.403433 -119.694490 316 22082ft 260kts
29-Jan-19 21:08 35.454694 -119.756713 316 22081ft 260kts
29-Jan-19 21:09 35.506441 -119.817988 318 22078ft 260kts
29-Jan-19 21:10 35.559704 -119.877912 318 22076ft 260kts
29-Jan-19 21:11 35.612744 -119.937557 318 22074ft 259kts
29-Jan-19 21:12 35.666166 -119.997279 322 22067ft 259kts
29-Jan-19 21:13 35.743452 -120.022634 341 22271ft 310kts
29-Jan-19 21:14 35.831431 -120.042222 343 22292ft 331kts
29-Jan-19 21:15 35.921103 -120.069106 331 22292ft 331kts
29-Jan-19 21:16 36.008621 -120.106241 332 22291ft 335kts
29-Jan-19 21:17 36.097118 -120.142350 332 22302ft 336kts
29-Jan-19 21:18 36.185563 -120.178483 332 22275ft 335kts
29-Jan-19 21:19 36.274094 -120.214285 333 22277ft 335kts
29-Jan-19 21:20 36.363291 -120.247887 335 22278ft 336kts
29-Jan-19 21:21 36.452987 -120.279713 336 22281ft 337kts
29-Jan-19 21:22 36.543278 -120.311102 336 22280ft 337kts
29-Jan-19 21:23 36.633377 -120.342435 336 22284ft 337kts
29-Jan-19 21:25 36.723660 -120.373897 336 22284ft 338kts
29-Jan-19 21:26 36.812980 -120.408990 333 22287ft 336kts
29-Jan-19 21:27 36.901829 -120.445259 333 22287ft 336kts
29-Jan-19 21:28 36.990343 -120.482349 331 22289ft 335kts
29-Jan-19 21:29 37.078182 -120.521825 331 22288ft 336kts
29-Jan-19 21:30 37.165823 -120.559376 329 22272ft 332kts
29-Jan-19 21:31 37.250884 -120.602882 328 22275ft 330kts
29-Jan-19 21:32 37.333522 -120.650134 322 22276ft 326kts
29-Jan-19 21:33 37.414773 -120.700678 323 22282ft 326kts
29-Jan-19 21:34 37.497861 -120.753129 323 21615ft 343kts
29-Jan-19 21:35 37.582664 -120.807656 323 21243ft 338kts
29-Jan-19 21:36 37.665369 -120.860322 323 21215ft 331kts
29-Jan-19 21:37 37.751702 -120.906965 335 20672ft 347kts
29-Jan-19 21:38 37.846519 -120.936468 339 20038ft 353kts
29-Jan-19 21:39 37.941720 -120.965791 330 18536ft 336kts
29-Jan-19 21:40 38.005868 -121.035914 303 17078ft 297kts
29-Jan-19 21:41 38.061932 -121.110415 303 15619ft 289kts
29-Jan-19 21:42 38.115986 -121.183639 303 14129ft 279kts
29-Jan-19 21:42 38.151105 -121.248171 293 12844ft 261kts
29-Jan-19 21:44 38.190342 -121.339784 283 11054ft 246kts
29-Jan-19 21:45 38.214015 -121.420772 283 9532ft 243kts
29-Jan-19 21:45 38.231986 -121.488389 284 8261ft 241kts
29-Jan-19 21:46 38.251469 -121.569417 284 6745ft 240kts
29-Jan-19 21:48 38.291233 -121.650221 337 4950ft 236kts
29-Jan-19 21:49 38.352309 -121.627195 27 3562ft 233kts
29-Jan-19 21:49 38.396863 -121.591304 32 2712ft 220kts
29-Jan-19 21:50 38.442610 -121.552438 32 1625ft 172kts
29-Jan-19 21:51 38.477714 -121.523043 31 649ft 151kts
29-Jan-19 21:52 38.509471 -121.497148 30 21ft 108kts
29-Jan-19 21:53 38.516700 -121.492829 313 24ft 16kts
29-Jan-19 21:54 38.517977 -121.495371 222 25ft 7kts
29-Jan-19 21:55 38.516456 -121.496852 179 25ft 9kts
29-Jan-19 21:56 38.514079 -121.497041 204 22ft 0kts
29-Jan-19 21:57 38.513365 -121.497814 225 22ft 0kts
29-Jan-19 21:58 38.513365 -121.497814 226 22ft 0kts
29-Jan-19 21:59 38.513365 -121.497814 226 22ft 0kts
29-Jan-19 22:00 38.513365 -121.497814 226 22ft 0kts
29-Jan-19 22:01 38.513365 -121.497814 226 22ft 0kts
29-Jan-19 22:02 38.513365 -121.497814 226 22ft 0kts
29-Jan-19 22:03 38.513365 -121.497814 226 22ft 0kts
29-Jan-19 22:04 38.513365 -121.497814 226 22ft 0kts
29-Jan-19 22:05 38.513365 -121.497814 226 22ft 0kts
29-Jan-19 22:06 38.513365 -121.497814 226 22ft 0kts
29-Jan-19 22:07 38.513365 -121.497814 226 22ft 0kts

Navigation Log

Ident Type
Flight plan parsing failed, navigation log unavailable